Time;durP1;ratioP1;P1;durP2;ratioP2;P2;SDS_P1;SDS_P2;PMS_P1;PMS_P2;Temp;Humidity;BMP_temperature;BMP_pressure;BME280_temperature;BME280_humidity;BME280_pressure;Samples;Min_cycle;Max_cycle;Signal;HPM_P1;HPM_P2
2022/12/08 00:01:08;;;;;;;7.97;4.40;;;;;;;;;;4940098;28;20129;-75
2022/12/08 00:03:35;;;;;;;10.10;4.87;;;;;;;;;;4943423;28;20137;-77
2022/12/08 00:11:33;;;;;;;10.10;5.57;;;;;;;;;;4958534;28;20050;-75
2022/12/08 00:14:01;;;;;;;11.00;5.37;;;;;;;;;;4959243;28;20034;-76
2022/12/08 00:16:28;;;;;;;10.80;4.43;;;;;;;;;;4958771;28;20042;-76
2022/12/08 00:18:54;;;;;;;9.13;4.80;;;;;;;;;;4942923;28;20468;-76
2022/12/08 00:21:21;;;;;;;12.13;5.10;;;;;;;;;;4974103;28;20047;-76
2022/12/08 00:23:47;;;;;;;7.90;4.00;;;;;;;;;;4942859;28;20031;-75
2022/12/08 00:26:13;;;;;;;8.13;4.97;;;;;;;;;;4942378;28;20485;-75
2022/12/08 00:28:39;;;;;;;10.90;5.17;;;;;;;;;;4942639;28;20077;-75
2022/12/08 00:31:09;;;;;;;10.30;5.27;;;;;;;;;;4942573;28;20481;-78
2022/12/08 00:33:35;;;;;;;9.88;4.30;;;;;;;;;;4942886;28;20063;-77
2022/12/08 00:36:06;;;;;;;7.17;3.97;;;;;;;;;;4974058;28;20038;-76
2022/12/08 00:38:33;;;;;;;10.55;4.60;;;;;;;;;;4942552;28;20089;-77
2022/12/08 00:40:58;;;;;;;12.87;5.17;;;;;;;;;;4942046;28;20034;-75
2022/12/08 00:43:25;;;;;;;8.00;4.73;;;;;;;;;;4942338;28;20039;-73
2022/12/08 00:45:51;;;;;;;8.33;4.60;;;;;;;;;;4941996;28;20034;-75
2022/12/08 00:48:17;;;;;;;9.57;4.83;;;;;;;;;;4942337;28;20097;-75
2022/12/08 00:50:46;;;;;;;10.00;4.63;;;;;;;;;;4957759;28;20066;-76
2022/12/08 00:53:15;;;;;;;8.43;4.73;;;;;;;;;;4974694;28;20043;-74
2022/12/08 00:55:42;;;;;;;9.00;4.73;;;;;;;;;;4942393;28;20473;-76
2022/12/08 00:58:14;;;;;;;8.73;4.37;;;;;;;;;;4942493;28;20053;-79
2022/12/08 01:00:40;;;;;;;10.57;4.43;;;;;;;;;;4958729;28;20038;-80
2022/12/08 01:03:08;;;;;;;8.30;4.60;;;;;;;;;;4943143;28;20445;-78
2022/12/08 01:05:35;;;;;;;10.67;5.70;;;;;;;;;;4958542;28;20096;-78
2022/12/08 01:08:03;;;;;;;7.47;4.37;;;;;;;;;;4942165;28;20576;-83
2022/12/08 01:10:33;;;;;;;10.10;5.17;;;;;;;;;;4974601;28;20043;-80
2022/12/08 01:13:00;;;;;;;8.30;5.40;;;;;;;;;;4942311;28;20043;-79
2022/12/08 01:15:26;;;;;;;14.00;5.33;;;;;;;;;;4942147;28;20495;-78
2022/12/08 01:17:52;;;;;;;9.57;5.40;;;;;;;;;;4942394;28;20038;-77
2022/12/08 01:20:18;;;;;;;9.40;4.37;;;;;;;;;;4941956;28;20034;-79
2022/12/08 01:22:44;;;;;;;7.60;4.17;;;;;;;;;;4941603;28;20240;-77
2022/12/08 01:25:12;;;;;;;9.87;5.13;;;;;;;;;;4943193;28;20354;-77
2022/12/08 01:27:38;;;;;;;13.67;5.20;;;;;;;;;;4943453;28;20048;-77
2022/12/08 01:30:05;;;;;;;10.80;4.73;;;;;;;;;;4942956;28;20109;-77
2022/12/08 01:32:33;;;;;;;11.00;5.27;;;;;;;;;;4942955;28;20499;-81
2022/12/08 01:35:00;;;;;;;11.27;5.30;;;;;;;;;;4958447;28;20084;-78
2022/12/08 01:37:26;;;;;;;13.07;5.17;;;;;;;;;;4973525;28;20489;-76
2022/12/08 01:39:54;;;;;;;10.13;4.80;;;;;;;;;;4957781;28;20038;-76
2022/12/08 01:42:21;;;;;;;15.23;5.87;;;;;;;;;;4941787;28;20038;-76
2022/12/08 01:45:13;;;;;;;11.17;5.50;;;;;;;;;;4941610;28;20094;-78
2022/12/08 01:47:41;;;;;;;8.50;4.87;;;;;;;;;;4970124;28;20050;-78
2022/12/08 01:50:09;;;;;;;12.80;7.20;;;;;;;;;;4928872;29;20155;-79
2022/12/08 01:52:40;;;;;;;9.90;4.37;;;;;;;;;;4918995;29;20141;-77
2022/12/08 01:55:10;;;;;;;13.60;6.00;;;;;;;;;;4935784;29;20532;-81
2022/12/08 01:57:42;;;;;;;9.63;5.53;;;;;;;;;;4904046;29;20024;-80
2022/12/08 02:00:09;;;;;;;11.60;5.50;;;;;;;;;;4903386;29;20474;-80
2022/12/08 02:02:54;;;;;;;11.70;5.47;;;;;;;;;;4903787;29;20042;-80
2022/12/08 02:05:21;;;;;;;12.33;5.90;;;;;;;;;;4935572;29;20539;-78
2022/12/08 02:07:50;;;;;;;12.70;5.73;;;;;;;;;;4904198;29;20032;-80
2022/12/08 02:10:20;;;;;;;9.93;5.53;;;;;;;;;;4919354;29;20067;-77
2022/12/08 02:12:50;;;;;;;10.63;5.20;;;;;;;;;;4935283;29;20050;-79
2022/12/08 02:15:17;;;;;;;14.93;5.43;;;;;;;;;;4903918;29;20031;-75
2022/12/08 02:17:52;;;;;;;8.47;5.10;;;;;;;;;;4922439;28;20541;-76
2022/12/08 02:20:38;;;;;;;12.77;6.10;;;;;;;;;;4934674;28;20035;-79
2022/12/08 02:23:08;;;;;;;14.50;4.83;;;;;;;;;;4955733;28;20179;-84
2022/12/08 02:26:11;;;;;;;7.73;5.27;;;;;;;;;;4945020;28;20034;-83
2022/12/08 02:28:49;;;;;;;11.13;4.70;;;;;;;;;;4942738;28;20429;-77
2022/12/08 02:31:15;;;;;;;10.87;5.97;;;;;;;;;;4956478;28;20653;-77
2022/12/08 02:34:00;;;;;;;12.40;5.77;;;;;;;;;;4956697;28;20461;-77
2022/12/08 02:36:36;;;;;;;10.47;5.40;;;;;;;;;;4969163;28;20142;-79
2022/12/08 02:39:21;;;;;;;10.47;5.40;;;;;;;;;;4956869;28;20053;-78
2022/12/08 02:41:50;;;;;;;10.10;5.37;;;;;;;;;;4951880;28;20043;-77
2022/12/08 02:44:26;;;;;;;13.07;5.70;;;;;;;;;;4956915;28;20049;-78
2022/12/08 02:47:13;;;;;;;10.43;5.47;;;;;;;;;;4938502;28;20062;-78
2022/12/08 02:49:40;;;;;;;10.70;5.93;;;;;;;;;;4938309;28;20042;-81
2022/12/08 02:52:26;;;;;;;11.50;5.20;;;;;;;;;;4956259;28;20035;-79
2022/12/08 02:55:08;;;;;;;13.00;5.07;;;;;;;;;;4928192;28;20077;-78
2022/12/08 02:57:38;;;;;;;10.87;5.30;;;;;;;;;;4939848;28;20042;-77
2022/12/08 03:00:08;;;;;;;9.70;5.20;;;;;;;;;;4939805;28;20038;-79
2022/12/08 03:02:37;;;;;;;10.52;5.43;;;;;;;;;;4940060;28;20039;-77
2022/12/08 03:05:03;;;;;;;8.50;5.03;;;;;;;;;;4943518;28;20034;-80
2022/12/08 03:07:39;;;;;;;11.90;6.00;;;;;;;;;;4947672;28;20046;-81
2022/12/08 03:10:22;;;;;;;9.93;5.20;;;;;;;;;;4973754;28;20049;-83
2022/12/08 03:13:08;;;;;;;9.60;5.27;;;;;;;;;;4962441;28;20042;-83
2022/12/08 03:15:46;;;;;;;9.30;5.27;;;;;;;;;;4961296;28;20049;-82
2022/12/08 03:18:22;;;;;;;13.63;5.97;;;;;;;;;;4945667;28;20038;-84
2022/12/08 03:20:55;;;;;;;7.57;4.60;;;;;;;;;;4958727;28;20035;-82
2022/12/08 03:23:28;;;;;;;11.17;5.33;;;;;;;;;;4964171;28;20066;-83
2022/12/08 03:25:58;;;;;;;18.67;5.83;;;;;;;;;;4964163;28;20512;-83
2022/12/08 03:28:24;;;;;;;9.43;5.90;;;;;;;;;;4944582;28;20038;-78
2022/12/08 03:30:53;;;;;;;8.73;4.77;;;;;;;;;;4959519;28;20573;-81
2022/12/08 03:33:23;;;;;;;9.23;5.13;;;;;;;;;;4964969;28;20422;-79
2022/12/08 03:36:12;;;;;;;8.35;5.32;;;;;;;;;;4948732;28;20114;-80
2022/12/08 03:38:46;;;;;;;12.93;5.87;;;;;;;;;;4986661;28;20527;-83
2022/12/08 03:41:19;;;;;;;8.00;5.13;;;;;;;;;;4945614;28;20286;-79
2022/12/08 03:43:49;;;;;;;10.37;4.87;;;;;;;;;;4975642;28;20050;-78
2022/12/08 03:46:23;;;;;;;9.37;4.77;;;;;;;;;;4944986;28;20086;-81
2022/12/08 03:49:10;;;;;;;21.73;5.40;;;;;;;;;;4958176;28;20373;-82
2022/12/08 03:51:38;;;;;;;13.57;5.13;;;;;;;;;;4969091;28;20062;-77
2022/12/08 03:54:08;;;;;;;12.87;6.10;;;;;;;;;;4957717;28;20528;-76
2022/12/08 03:56:36;;;;;;;23.97;5.67;;;;;;;;;;4941861;28;20190;-75
2022/12/08 03:59:15;;;;;;;12.57;6.07;;;;;;;;;;4940254;28;20051;-82
2022/12/08 04:02:10;;;;;;;10.93;6.23;;;;;;;;;;4967190;28;20042;-78
2022/12/08 04:04:41;;;;;;;11.60;5.90;;;;;;;;;;4975377;28;20039;-83
2022/12/08 04:07:13;;;;;;;7.37;4.80;;;;;;;;;;4976580;28;20420;-77
2022/12/08 04:09:46;;;;;;;;;;;;;;;;;;4953663;28;20043;-79
2022/12/08 04:12:19;;;;;;;9.37;5.20;;;;;;;;;;4976030;28;19914;-78
2022/12/08 04:15:13;;;;;;;10.07;5.73;;;;;;;;;;4957049;28;20057;-79
2022/12/08 04:17:44;;;;;;;11.37;5.70;;;;;;;;;;4967080;28;20038;-77
2022/12/08 04:20:18;;;;;;;13.73;5.77;;;;;;;;;;4960720;28;20042;-77
2022/12/08 04:22:48;;;;;;;16.87;5.90;;;;;;;;;;4936408;28;20046;-75
2022/12/08 04:25:14;;;;;;;15.47;7.37;;;;;;;;;;4955742;28;20042;-79
2022/12/08 04:27:40;;;;;;;11.60;5.53;;;;;;;;;;4957208;28;20027;-82
2022/12/08 04:30:07;;;;;;;12.27;5.60;;;;;;;;;;4957281;28;20048;-83
2022/12/08 04:32:37;;;;;;;11.40;5.73;;;;;;;;;;4957204;28;20129;-76
2022/12/08 04:35:03;;;;;;;9.63;5.13;;;;;;;;;;4941309;28;20038;-77
2022/12/08 04:37:31;;;;;;;11.77;5.77;;;;;;;;;;4941201;28;20070;-73
2022/12/08 04:39:57;;;;;;;14.77;5.70;;;;;;;;;;4940763;29;20043;-72
2022/12/08 04:42:24;;;;;;;13.10;5.33;;;;;;;;;;4937975;29;20058;-73
2022/12/08 04:44:49;;;;;;;11.00;5.43;;;;;;;;;;4921817;29;20039;-70
2022/12/08 04:47:16;;;;;;;14.43;5.27;;;;;;;;;;4938035;29;20477;-72
2022/12/08 04:49:42;;;;;;;11.43;5.37;;;;;;;;;;4922033;29;20135;-71
2022/12/08 04:52:08;;;;;;;9.70;5.47;;;;;;;;;;4922072;29;20031;-69
2022/12/08 04:54:36;;;;;;;21.23;5.03;;;;;;;;;;4921960;29;20031;-71
2022/12/08 04:57:02;;;;;;;13.20;5.80;;;;;;;;;;4921981;29;20065;-71
2022/12/08 04:59:28;;;;;;;9.30;4.90;;;;;;;;;;4922245;29;20070;-73
2022/12/08 05:01:54;;;;;;;11.30;5.97;;;;;;;;;;4921497;29;20460;-72
2022/12/08 05:04:31;;;;;;;12.37;5.80;;;;;;;;;;4948159;29;20200;-75
2022/12/08 05:06:59;;;;;;;16.43;4.97;;;;;;;;;;4918985;29;20069;-73
2022/12/08 05:09:25;;;;;;;7.80;4.87;;;;;;;;;;4918625;29;20509;-73
2022/12/08 05:11:50;;;;;;;14.40;5.10;;;;;;;;;;4918628;29;20051;-73
2022/12/08 05:14:17;;;;;;;14.40;4.83;;;;;;;;;;4919158;29;20462;-73
2022/12/08 05:16:43;;;;;;;12.77;5.00;;;;;;;;;;4919836;29;20082;-72
2022/12/08 05:19:09;;;;;;;14.30;4.80;;;;;;;;;;4935990;29;20445;-74
2022/12/08 05:21:35;;;;;;;8.57;5.10;;;;;;;;;;4920568;29;20138;-74
2022/12/08 05:24:01;;;;;;;10.20;4.43;;;;;;;;;;4921031;29;20067;-74
2022/12/08 05:26:27;;;;;;;10.00;4.57;;;;;;;;;;4920156;29;20039;-75
2022/12/08 05:28:52;;;;;;;9.73;4.90;;;;;;;;;;4920429;29;20069;-71
2022/12/08 05:31:18;;;;;;;7.73;4.33;;;;;;;;;;4936466;29;20090;-74
2022/12/08 05:33:48;;;;;;;9.10;4.60;;;;;;;;;;4921145;29;20043;-70
2022/12/08 05:36:14;;;;;;;9.17;5.17;;;;;;;;;;4920930;29;20031;-70
2022/12/08 05:38:40;;;;;;;12.40;4.70;;;;;;;;;;4920648;29;20119;-71
2022/12/08 05:41:06;;;;;;;10.53;5.43;;;;;;;;;;4920262;29;20035;-71
2022/12/08 05:43:32;;;;;;;9.83;4.80;;;;;;;;;;4918359;29;20421;-71
2022/12/08 05:45:58;;;;;;;10.13;5.27;;;;;;;;;;4918529;29;20035;-71
2022/12/08 05:48:24;;;;;;;12.90;5.50;;;;;;;;;;4917830;29;20058;-71
2022/12/08 05:50:50;;;;;;;10.63;5.40;;;;;;;;;;4917979;29;20105;-70
2022/12/08 05:53:17;;;;;;;15.63;5.20;;;;;;;;;;4935163;29;20039;-71
2022/12/08 05:55:43;;;;;;;11.17;4.97;;;;;;;;;;4935852;29;20031;-71
2022/12/08 05:58:13;;;;;;;13.83;5.70;;;;;;;;;;4935983;29;20515;-72
2022/12/08 06:00:38;;;;;;;22.75;6.20;;;;;;;;;;4935938;28;20062;-72
2022/12/08 06:03:09;;;;;;;10.50;4.57;;;;;;;;;;4920417;29;20086;-71
2022/12/08 06:05:35;;;;;;;10.67;5.43;;;;;;;;;;4935820;28;20094;-71
2022/12/08 06:08:01;;;;;;;18.23;6.60;;;;;;;;;;4935876;29;20035;-73
2022/12/08 06:10:27;;;;;;;9.53;4.53;;;;;;;;;;4935923;28;20544;-71
2022/12/08 06:12:52;;;;;;;10.37;4.77;;;;;;;;;;4934902;29;20470;-71
2022/12/08 06:15:18;;;;;;;7.73;5.30;;;;;;;;;;4920123;29;20035;-71
2022/12/08 06:17:44;;;;;;;9.73;5.07;;;;;;;;;;4935484;28;20486;-70
2022/12/08 06:20:10;;;;;;;11.63;4.80;;;;;;;;;;4936429;28;20394;-72
2022/12/08 06:22:36;;;;;;;11.27;5.17;;;;;;;;;;4954765;28;20038;-72
2022/12/08 06:25:02;;;;;;;12.83;5.17;;;;;;;;;;4954489;28;20034;-73
2022/12/08 06:27:29;;;;;;;14.30;6.00;;;;;;;;;;4940854;28;20030;-73
2022/12/08 06:29:54;;;;;;;11.20;5.57;;;;;;;;;;4969661;28;20153;-72
2022/12/08 06:32:20;;;;;;;11.90;4.80;;;;;;;;;;4957632;28;20473;-74
2022/12/08 06:34:46;;;;;;;14.73;4.83;;;;;;;;;;4940087;28;20137;-73
2022/12/08 06:37:12;;;;;;;9.43;4.90;;;;;;;;;;4939303;28;20055;-72
2022/12/08 06:39:37;;;;;;;11.20;5.10;;;;;;;;;;4970993;28;20027;-72
2022/12/08 06:44:49;;;;;;;10.20;4.73;;;;;;;;;;4952035;28;20035;-72
2022/12/08 06:47:14;;;;;;;12.13;5.00;;;;;;;;;;4937635;28;20125;-74
2022/12/08 06:49:40;;;;;;;10.33;5.30;;;;;;;;;;4938108;28;20516;-72
2022/12/08 06:52:06;;;;;;;14.03;5.40;;;;;;;;;;4932967;28;20038;-73
2022/12/08 06:54:32;;;;;;;12.53;4.93;;;;;;;;;;4953794;28;20452;-73
2022/12/08 06:56:58;;;;;;;8.50;4.93;;;;;;;;;;4954088;28;20035;-72
2022/12/08 06:59:24;;;;;;;20.83;4.67;;;;;;;;;;4954166;28;20042;-70
2022/12/08 07:01:51;;;;;;;12.03;4.80;;;;;;;;;;4941064;28;20570;-73
2022/12/08 07:04:17;;;;;;;12.10;4.50;;;;;;;;;;4970056;28;20038;-72
2022/12/08 07:06:43;;;;;;;13.40;4.93;;;;;;;;;;4953450;28;20039;-72
2022/12/08 07:09:08;;;;;;;11.13;5.10;;;;;;;;;;4953494;28;20031;-73
2022/12/08 07:11:34;;;;;;;15.13;5.37;;;;;;;;;;4952695;28;20046;-73
2022/12/08 07:14:00;;;;;;;10.03;4.50;;;;;;;;;;4953403;28;20030;-72
2022/12/08 07:16:25;;;;;;;10.07;4.60;;;;;;;;;;4969969;28;20038;-72
2022/12/08 07:18:51;;;;;;;19.00;5.30;;;;;;;;;;4937971;28;20354;-72
2022/12/08 07:21:17;;;;;;;11.60;5.47;;;;;;;;;;4953051;28;20046;-70
2022/12/08 07:23:46;;;;;;;11.63;5.17;;;;;;;;;;4937257;28;20027;-72
2022/12/08 07:26:12;;;;;;;13.47;5.13;;;;;;;;;;4954268;28;20045;-71
2022/12/08 07:28:39;;;;;;;10.97;4.77;;;;;;;;;;4938296;28;20042;-71
2022/12/08 07:31:05;;;;;;;9.27;4.83;;;;;;;;;;4970583;28;20125;-72
2022/12/08 07:33:32;;;;;;;10.53;4.67;;;;;;;;;;4970566;28;20478;-73
2022/12/08 07:35:58;;;;;;;10.63;4.63;;;;;;;;;;4954868;28;20200;-71
2022/12/08 07:38:24;;;;;;;14.47;5.23;;;;;;;;;;4938643;28;20054;-71
2022/12/08 07:40:50;;;;;;;9.63;3.87;;;;;;;;;;4970024;28;20194;-72
2022/12/08 07:43:24;;;;;;;10.63;5.40;;;;;;;;;;4937899;28;20666;-74
2022/12/08 07:45:49;;;;;;;9.63;4.40;;;;;;;;;;4938949;28;20041;-73
2022/12/08 07:48:16;;;;;;;11.67;4.83;;;;;;;;;;4954527;28;20047;-74
2022/12/08 07:50:42;;;;;;;9.43;5.07;;;;;;;;;;4940793;28;20042;-71
2022/12/08 07:53:09;;;;;;;9.10;5.33;;;;;;;;;;4957521;28;20040;-72
2022/12/08 07:55:42;;;;;;;7.80;4.97;;;;;;;;;;4942007;28;20032;-72
2022/12/08 07:58:08;;;;;;;8.30;4.43;;;;;;;;;;4938764;29;20043;-72
2022/12/08 08:00:34;;;;;;;10.77;4.67;;;;;;;;;;4933106;28;20393;-75
2022/12/08 08:03:00;;;;;;;10.10;4.63;;;;;;;;;;4957225;28;20516;-73
2022/12/08 08:05:26;;;;;;;11.23;4.90;;;;;;;;;;4940345;28;20027;-73
2022/12/08 08:07:52;;;;;;;11.10;4.60;;;;;;;;;;4939868;28;20049;-74
2022/12/08 08:10:18;;;;;;;14.00;4.77;;;;;;;;;;4940035;28;20485;-75
2022/12/08 08:12:44;;;;;;;9.83;4.97;;;;;;;;;;4940478;28;20097;-77
2022/12/08 08:15:09;;;;;;;16.77;6.07;;;;;;;;;;4956230;28;20053;-81
2022/12/08 08:17:36;;;;;;;8.87;4.70;;;;;;;;;;4955992;28;20376;-74
2022/12/08 08:20:02;;;;;;;12.40;5.80;;;;;;;;;;4973520;28;20129;-75
2022/12/08 08:22:29;;;;;;;12.20;4.50;;;;;;;;;;4974052;28;20117;-74
2022/12/08 08:24:55;;;;;;;16.47;6.10;;;;;;;;;;4941487;28;20548;-74
2022/12/08 08:27:21;;;;;;;11.60;5.60;;;;;;;;;;4956212;28;20041;-75
2022/12/08 08:29:47;;;;;;;11.67;5.97;;;;;;;;;;4939505;28;20037;-75
2022/12/08 08:32:13;;;;;;;12.90;5.40;;;;;;;;;;4939620;28;20047;-74
2022/12/08 08:34:39;;;;;;;16.67;6.13;;;;;;;;;;4935850;28;20027;-74
2022/12/08 08:37:05;;;;;;;19.30;6.03;;;;;;;;;;4935077;28;20154;-74
2022/12/08 08:39:31;;;;;;;14.40;5.40;;;;;;;;;;4940429;28;20114;-75
2022/12/08 08:41:57;;;;;;;23.00;5.60;;;;;;;;;;4956825;28;20044;-75
2022/12/08 08:44:23;;;;;;;11.30;5.73;;;;;;;;;;4940381;28;20026;-75
2022/12/08 08:47:01;;;;;;;12.57;5.20;;;;;;;;;;4973164;28;20484;-76
2022/12/08 08:49:34;;;;;;;12.03;5.30;;;;;;;;;;4957564;28;20469;-77
2022/12/08 08:52:03;;;;;;;17.73;5.97;;;;;;;;;;4946801;28;20193;-75
2022/12/08 08:54:29;;;;;;;14.53;6.27;;;;;;;;;;4951186;28;20382;-74
2022/12/08 08:56:56;;;;;;;11.37;6.53;;;;;;;;;;4935087;29;20098;-74
2022/12/08 08:59:21;;;;;;;16.83;6.33;;;;;;;;;;4935230;29;20414;-71
2022/12/08 09:01:47;;;;;;;14.23;6.60;;;;;;;;;;4918998;29;20035;-73
2022/12/08 09:04:13;;;;;;;10.83;5.27;;;;;;;;;;4919027;29;20071;-72
2022/12/08 09:06:44;;;;;;;10.13;5.47;;;;;;;;;;4919446;29;20478;-71
2022/12/08 09:09:13;;;;;;;13.93;6.00;;;;;;;;;;4902733;29;20042;-72
2022/12/08 09:11:41;;;;;;;16.00;5.80;;;;;;;;;;4917764;29;20043;-72
2022/12/08 09:14:10;;;;;;;8.60;5.43;;;;;;;;;;4921577;29;20061;-72
2022/12/08 09:16:38;;;;;;;14.48;5.53;;;;;;;;;;4953377;28;20422;-71
2022/12/08 09:19:06;;;;;;;10.87;5.90;;;;;;;;;;4921354;29;20047;-71
2022/12/08 09:21:38;;;;;;;9.17;5.33;;;;;;;;;;4921046;29;20051;-72
2022/12/08 09:24:04;;;;;;;10.40;5.30;;;;;;;;;;4920221;28;20039;-72
2022/12/08 09:26:30;;;;;;;12.43;6.03;;;;;;;;;;4922453;29;20061;-74
2022/12/08 09:28:56;;;;;;;9.70;5.47;;;;;;;;;;4921362;29;20027;-73
2022/12/08 09:31:23;;;;;;;11.23;5.17;;;;;;;;;;4935844;28;20051;-74
2022/12/08 09:33:52;;;;;;;10.87;5.47;;;;;;;;;;4921386;28;20058;-73
2022/12/08 09:36:19;;;;;;;19.97;6.17;;;;;;;;;;4954056;28;20039;-73
2022/12/08 09:38:45;;;;;;;8.97;5.47;;;;;;;;;;4935935;28;20501;-72
2022/12/08 09:41:32;;;;;;;14.73;5.77;;;;;;;;;;4921877;28;20031;-72
2022/12/08 09:43:57;;;;;;;15.43;5.27;;;;;;;;;;4905722;29;20062;-73
2022/12/08 09:46:28;;;;;;;13.63;6.07;;;;;;;;;;4922423;29;20058;-73
2022/12/08 09:48:55;;;;;;;14.70;5.97;;;;;;;;;;4921234;29;20049;-73
2022/12/08 09:51:29;;;;;;;12.93;5.80;;;;;;;;;;4921346;29;20095;-73
2022/12/08 09:54:04;;;;;;;11.53;5.20;;;;;;;;;;4937321;28;20039;-71
2022/12/08 09:56:34;;;;;;;10.67;5.03;;;;;;;;;;4953388;28;20050;-72
2022/12/08 09:59:01;;;;;;;13.73;6.13;;;;;;;;;;4937432;29;20042;-71
2022/12/08 10:01:31;;;;;;;11.33;5.40;;;;;;;;;;4921477;29;20550;-72
2022/12/08 10:03:57;;;;;;;13.90;6.07;;;;;;;;;;4921347;29;20035;-72
2022/12/08 10:06:46;;;;;;;14.80;5.80;;;;;;;;;;4921120;28;20397;-73
2022/12/08 10:09:15;;;;;;;11.50;5.37;;;;;;;;;;4920847;29;20081;-73
2022/12/08 10:11:50;;;;;;;14.27;6.00;;;;;;;;;;4935535;29;20055;-73
2022/12/08 10:14:15;;;;;;;13.43;5.80;;;;;;;;;;4937014;29;20046;-72
2022/12/08 10:16:43;;;;;;;16.53;5.70;;;;;;;;;;4920712;29;20043;-72
2022/12/08 10:19:19;;;;;;;13.70;5.80;;;;;;;;;;4920939;29;20053;-73
2022/12/08 10:21:45;;;;;;;14.20;5.80;;;;;;;;;;4936942;29;20501;-72
2022/12/08 10:24:15;;;;;;;11.10;5.77;;;;;;;;;;4952518;28;20040;-73
2022/12/08 10:26:41;;;;;;;12.85;5.50;;;;;;;;;;4936806;29;20031;-72
2022/12/08 10:29:11;;;;;;;11.23;5.83;;;;;;;;;;4920627;29;20035;-72
2022/12/08 10:31:37;;;;;;;9.50;5.60;;;;;;;;;;4920390;28;20062;-72
2022/12/08 10:34:13;;;;;;;19.37;6.30;;;;;;;;;;4920561;29;20417;-72
2022/12/08 10:36:51;;;;;;;11.47;5.90;;;;;;;;;;4920252;29;20031;-72
2022/12/08 10:39:30;;;;;;;13.20;5.77;;;;;;;;;;4920714;29;20035;-71
2022/12/08 10:42:05;;;;;;;10.73;5.40;;;;;;;;;;4920597;29;20125;-71
2022/12/08 10:44:31;;;;;;;10.87;5.43;;;;;;;;;;4952560;28;20046;-71
2022/12/08 10:46:57;;;;;;;10.90;5.70;;;;;;;;;;4920669;29;20035;-72
2022/12/08 10:49:31;;;;;;;13.97;5.97;;;;;;;;;;4920493;29;20043;-72
2022/12/08 10:51:57;;;;;;;12.10;5.30;;;;;;;;;;4951115;28;20042;-71
2022/12/08 10:54:25;;;;;;;8.80;5.37;;;;;;;;;;4935652;28;20035;-73
2022/12/08 10:56:55;;;;;;;8.23;4.63;;;;;;;;;;4935488;29;20058;-72
2022/12/08 10:59:24;;;;;;;10.10;5.67;;;;;;;;;;4935017;29;20059;-71
2022/12/08 11:01:51;;;;;;;16.40;6.07;;;;;;;;;;4935837;29;20094;-72
2022/12/08 11:04:28;;;;;;;11.57;5.47;;;;;;;;;;4936746;29;20043;-71
2022/12/08 11:06:58;;;;;;;10.77;5.77;;;;;;;;;;4937180;29;20069;-74
2022/12/08 11:09:47;;;;;;;18.87;6.63;;;;;;;;;;4935927;29;20521;-75
2022/12/08 11:12:17;;;;;;;14.00;6.67;;;;;;;;;;4936229;29;20073;-70
2022/12/08 11:14:53;;;;;;;15.07;6.53;;;;;;;;;;4943281;29;20481;-69
2022/12/08 11:17:22;;;;;;;13.27;6.10;;;;;;;;;;4921221;29;20039;-71
2022/12/08 11:19:55;;;;;;;16.73;6.20;;;;;;;;;;4920563;29;20434;-70
2022/12/08 11:22:21;;;;;;;10.73;5.70;;;;;;;;;;4936330;29;20039;-70
2022/12/08 11:24:55;;;;;;;13.23;6.33;;;;;;;;;;4921689;29;20094;-71
2022/12/08 11:27:20;;;;;;;14.67;6.50;;;;;;;;;;4939633;29;20548;-70
2022/12/08 11:29:47;;;;;;;14.07;6.93;;;;;;;;;;4923556;29;20039;-71
2022/12/08 11:32:13;;;;;;;18.40;6.60;;;;;;;;;;4939594;29;20051;-69
2022/12/08 11:34:48;;;;;;;15.37;6.07;;;;;;;;;;4939479;29;20035;-70
2022/12/08 11:37:21;;;;;;;13.37;6.60;;;;;;;;;;4923422;29;20141;-69
2022/12/08 11:39:51;;;;;;;13.30;6.23;;;;;;;;;;4939518;29;20074;-69
2022/12/08 11:42:20;;;;;;;12.30;5.83;;;;;;;;;;4939294;29;20042;-70
2022/12/08 11:44:52;;;;;;;15.67;6.60;;;;;;;;;;4939117;29;20042;-70
2022/12/08 11:47:17;;;;;;;15.40;6.70;;;;;;;;;;4939111;29;20054;-71
2022/12/08 11:49:44;;;;;;;16.30;6.73;;;;;;;;;;4922938;29;20362;-70
2022/12/08 11:52:18;;;;;;;12.73;6.47;;;;;;;;;;4939163;29;20071;-70
2022/12/08 11:54:57;;;;;;;15.77;6.43;;;;;;;;;;4923517;29;20039;-71
2022/12/08 11:57:25;;;;;;;15.57;6.43;;;;;;;;;;4954957;29;20505;-70
2022/12/08 11:59:53;;;;;;;14.03;7.23;;;;;;;;;;4939127;29;20031;-70
2022/12/08 12:02:21;;;;;;;12.07;6.27;;;;;;;;;;4939295;29;20504;-70
2022/12/08 12:04:53;;;;;;;18.00;5.90;;;;;;;;;;4919422;29;20044;-70
2022/12/08 12:07:25;;;;;;;12.47;5.87;;;;;;;;;;4918859;29;20043;-72
2022/12/08 12:09:51;;;;;;;11.60;6.07;;;;;;;;;;4918394;29;20067;-71
2022/12/08 12:12:21;;;;;;;12.77;5.73;;;;;;;;;;4933320;29;20350;-71
2022/12/08 12:15:00;;;;;;;13.33;5.77;;;;;;;;;;4919784;29;20046;-73
2022/12/08 12:17:41;;;;;;;13.57;5.87;;;;;;;;;;4935695;29;20553;-73
2022/12/08 12:20:13;;;;;;;18.07;5.47;;;;;;;;;;4919830;29;20048;-72
2022/12/08 12:22:38;;;;;;;10.63;5.27;;;;;;;;;;4904178;29;20046;-70
2022/12/08 12:25:04;;;;;;;10.83;5.50;;;;;;;;;;4919629;29;20040;-73
2022/12/08 12:27:37;;;;;;;15.80;6.13;;;;;;;;;;4935671;29;20470;-73
2022/12/08 12:30:05;;;;;;;12.13;5.47;;;;;;;;;;4919538;29;20061;-73
2022/12/08 12:32:50;;;;;;;12.23;5.73;;;;;;;;;;4935390;29;20398;-71
2022/12/08 12:35:24;;;;;;;13.57;5.67;;;;;;;;;;4918321;29;20154;-70
2022/12/08 12:37:50;;;;;;;9.00;5.47;;;;;;;;;;4919201;29;20083;-70
2022/12/08 12:40:16;;;;;;;12.13;5.97;;;;;;;;;;4919365;29;20070;-71
2022/12/08 12:42:49;;;;;;;12.50;5.43;;;;;;;;;;4919171;29;20039;-71
2022/12/08 12:45:15;;;;;;;15.90;5.87;;;;;;;;;;4935216;29;20047;-70
2022/12/08 12:47:49;;;;;;;13.17;5.90;;;;;;;;;;4918494;29;20091;-70
2022/12/08 12:50:37;;;;;;;9.13;5.40;;;;;;;;;;4918700;29;20051;-71
2022/12/08 12:53:03;;;;;;;15.57;5.80;;;;;;;;;;4931773;28;20051;-71
2022/12/08 12:55:48;;;;;;;10.97;5.77;;;;;;;;;;4922583;29;20386;-72
2022/12/08 12:58:32;;;;;;;12.70;5.43;;;;;;;;;;4937692;28;20037;-72
2022/12/08 13:01:07;;;;;;;13.63;5.80;;;;;;;;;;4922208;29;20347;-72
2022/12/08 13:03:33;;;;;;;11.27;6.00;;;;;;;;;;4922383;28;20047;-72
2022/12/08 13:05:58;;;;;;;10.07;5.13;;;;;;;;;;4922456;29;20043;-72
2022/12/08 13:08:25;;;;;;;10.03;5.63;;;;;;;;;;4922331;29;20521;-70
2022/12/08 13:11:05;;;;;;;12.13;5.80;;;;;;;;;;4921271;28;20086;-71
2022/12/08 13:13:31;;;;;;;11.07;5.35;;;;;;;;;;4937561;29;20039;-70
2022/12/08 13:16:09;;;;;;;11.13;6.23;;;;;;;;;;4947098;28;20036;-71
2022/12/08 13:18:41;;;;;;;13.93;4.73;;;;;;;;;;4906935;29;20067;-70
2022/12/08 13:21:08;;;;;;;14.20;6.27;;;;;;;;;;4918608;29;20059;-72
2022/12/08 13:23:37;;;;;;;10.87;6.13;;;;;;;;;;4918386;29;20035;-71
2022/12/08 13:26:22;;;;;;;10.77;5.50;;;;;;;;;;4913067;29;20031;-77
2022/12/08 13:28:57;;;;;;;15.90;5.73;;;;;;;;;;4918967;29;20118;-72
2022/12/08 13:31:38;;;;;;;12.73;6.07;;;;;;;;;;4917793;29;20096;-72
2022/12/08 13:34:12;;;;;;;15.20;6.17;;;;;;;;;;4934078;29;20035;-71
2022/12/08 13:36:40;;;;;;;17.57;6.63;;;;;;;;;;4918391;29;20023;-75
2022/12/08 13:39:11;;;;;;;18.73;6.67;;;;;;;;;;4917809;29;20135;-72
2022/12/08 13:41:40;;;;;;;12.27;6.40;;;;;;;;;;4902390;29;20042;-72
2022/12/08 13:44:14;;;;;;;14.70;6.53;;;;;;;;;;4936431;28;20039;-73
2022/12/08 13:46:45;;;;;;;12.47;5.93;;;;;;;;;;4933403;29;20434;-73
2022/12/08 13:49:14;;;;;;;11.38;5.40;;;;;;;;;;4927248;29;20182;-76
2022/12/08 13:51:42;;;;;;;15.90;6.67;;;;;;;;;;4942852;29;20475;-75
2022/12/08 13:54:23;;;;;;;13.43;6.53;;;;;;;;;;4932802;29;20035;-77
2022/12/08 13:56:49;;;;;;;12.68;6.55;;;;;;;;;;4929044;29;20070;-76
2022/12/08 13:59:26;;;;;;;13.13;6.27;;;;;;;;;;4944763;28;20087;-76
2022/12/08 14:01:53;;;;;;;14.37;6.57;;;;;;;;;;4952144;29;20097;-75
2022/12/08 14:04:20;;;;;;;10.73;5.83;;;;;;;;;;4918099;29;20035;-74
2022/12/08 14:06:47;;;;;;;15.80;7.03;;;;;;;;;;4918146;29;20036;-74
2022/12/08 14:09:19;;;;;;;14.20;6.77;;;;;;;;;;4921298;29;20042;-74
2022/12/08 14:11:46;;;;;;;19.27;7.43;;;;;;;;;;4916579;29;20155;-73
2022/12/08 14:14:18;;;;;;;15.27;7.10;;;;;;;;;;4918129;29;20032;-72
2022/12/08 14:16:54;;;;;;;12.82;5.80;;;;;;;;;;4938071;29;20051;-73
2022/12/08 14:19:21;;;;;;;12.00;6.40;;;;;;;;;;4952388;29;20047;-74
2022/12/08 14:21:50;;;;;;;11.63;6.13;;;;;;;;;;4933324;29;20074;-74
2022/12/08 14:24:16;;;;;;;15.10;7.37;;;;;;;;;;4933065;29;20413;-75
2022/12/08 14:26:44;;;;;;;15.10;7.23;;;;;;;;;;4917832;29;20050;-76
2022/12/08 14:29:15;;;;;;;12.37;6.77;;;;;;;;;;4917728;29;20470;-75
2022/12/08 14:31:40;;;;;;;13.55;6.97;;;;;;;;;;4917751;29;20209;-75
2022/12/08 14:34:06;;;;;;;13.23;6.27;;;;;;;;;;4939421;29;20492;-76
2022/12/08 14:36:32;;;;;;;13.23;7.37;;;;;;;;;;4937193;28;20039;-72
2022/12/08 14:38:58;;;;;;;14.57;7.03;;;;;;;;;;4936052;28;20389;-76
2022/12/08 14:41:25;;;;;;;17.47;7.00;;;;;;;;;;4920355;29;20038;-73
2022/12/08 14:43:59;;;;;;;17.33;7.47;;;;;;;;;;4936364;28;20489;-73
2022/12/08 14:46:24;;;;;;;12.30;6.03;;;;;;;;;;4942829;29;20040;-73
2022/12/08 14:48:52;;;;;;;15.00;7.50;;;;;;;;;;4923605;29;20042;-74
2022/12/08 14:51:18;;;;;;;13.97;7.07;;;;;;;;;;4923548;29;20046;-73
2022/12/08 14:53:48;;;;;;;15.63;7.00;;;;;;;;;;4916721;29;20039;-73
2022/12/08 14:56:13;;;;;;;20.17;8.23;;;;;;;;;;4926333;29;20050;-72